createdAt,value
2017-11-19T00:00:19.360Z,3.50
2017-11-19T00:02:47.750Z,3.50
2017-11-19T00:05:16.127Z,3.50
2017-11-19T00:07:45.307Z,3.40
2017-11-19T00:10:13.690Z,3.40
2017-11-19T00:12:42.143Z,3.40
2017-11-19T00:15:10.530Z,3.40
2017-11-19T00:17:38.921Z,3.40
2017-11-19T00:20:07.518Z,3.40
2017-11-19T00:22:35.924Z,3.40
2017-11-19T00:25:04.555Z,3.40
2017-11-19T00:27:33.079Z,3.50
2017-11-19T00:30:01.541Z,3.50
2017-11-19T00:32:29.951Z,3.50
2017-11-19T00:34:58.310Z,3.50
2017-11-19T00:37:26.728Z,3.50
2017-11-19T00:39:55.864Z,3.60
2017-11-19T00:42:24.236Z,3.50
2017-11-19T00:44:52.616Z,3.50
2017-11-19T00:47:20.983Z,3.60
2017-11-19T00:49:49.396Z,3.60
2017-11-19T00:52:17.802Z,3.50
2017-11-19T00:54:46.951Z,3.50
2017-11-19T00:57:15.360Z,3.50
2017-11-19T00:59:43.754Z,3.50
2017-11-19T01:02:13.100Z,3.60
2017-11-19T01:04:41.488Z,3.50
2017-11-19T01:07:09.856Z,3.60
2017-11-19T01:09:38.247Z,3.60
2017-11-19T01:12:06.620Z,3.60
2017-11-19T01:14:35.023Z,3.60
2017-11-19T01:17:03.400Z,3.50
2017-11-19T01:19:31.772Z,3.60
2017-11-19T01:22:00.448Z,3.50
2017-11-19T01:24:28.814Z,3.40
2017-11-19T01:26:57.236Z,3.50
2017-11-19T01:29:25.603Z,3.40
2017-11-19T01:31:54.001Z,3.30
2017-11-19T01:34:22.388Z,3.30
2017-11-19T01:36:51.516Z,3.20
2017-11-19T01:39:20.312Z,3.20
2017-11-19T01:41:48.680Z,3.10
2017-11-19T01:44:17.047Z,3.00
2017-11-19T01:46:45.485Z,3.00
2017-11-19T01:49:13.855Z,3.00
2017-11-19T01:51:42.288Z,2.90
2017-11-19T01:54:10.691Z,2.80
2017-11-19T01:56:39.045Z,2.80
2017-11-19T01:59:07.430Z,2.70
2017-11-19T02:01:35.797Z,2.60
2017-11-19T02:04:04.471Z,2.50
2017-11-19T02:06:33.610Z,2.40
2017-11-19T02:09:01.975Z,2.40
2017-11-19T02:11:30.364Z,2.30
2017-11-19T02:13:58.738Z,2.30
2017-11-19T02:16:27.153Z,2.30
2017-11-19T02:18:55.531Z,2.30
2017-11-19T02:21:23.917Z,2.30
2017-11-19T02:23:53.106Z,2.30
2017-11-19T02:26:21.477Z,2.20
2017-11-19T02:28:49.905Z,2.30
2017-11-19T02:31:18.282Z,2.30
2017-11-19T02:33:46.651Z,2.20
2017-11-19T02:36:15.813Z,2.20
2017-11-19T02:38:44.273Z,2.20
2017-11-19T02:41:12.847Z,2.20
2017-11-19T02:43:41.213Z,2.20
2017-11-19T02:46:09.581Z,2.20
2017-11-19T02:48:38.001Z,2.10
2017-11-19T02:51:06.370Z,2.10
2017-11-19T02:53:34.748Z,2.00
2017-11-19T02:56:03.139Z,2.00
2017-11-19T02:58:31.508Z,1.90
2017-11-19T03:00:59.881Z,1.90
2017-11-19T03:03:28.274Z,1.90
2017-11-19T03:05:56.688Z,1.90
2017-11-19T03:08:25.855Z,1.80
2017-11-19T03:10:54.256Z,1.80
2017-11-19T03:13:22.633Z,1.70
2017-11-19T03:15:51.033Z,1.70
2017-11-19T03:18:20.173Z,1.70
2017-11-19T03:20:48.599Z,1.70
2017-11-19T03:23:17.749Z,1.60
2017-11-19T03:25:46.122Z,1.60
2017-11-19T03:28:14.512Z,1.50
2017-11-19T03:30:42.883Z,1.50
2017-11-19T03:33:11.304Z,1.50
2017-11-19T03:35:40.447Z,1.40
2017-11-19T03:38:08.815Z,1.40
2017-11-19T03:40:37.201Z,1.40
2017-11-19T03:43:05.567Z,1.40
2017-11-19T03:45:34.070Z,1.40
2017-11-19T03:48:02.434Z,1.40
2017-11-19T03:50:30.824Z,1.40
2017-11-19T03:52:59.243Z,1.30
2017-11-19T03:55:27.611Z,1.30
2017-11-19T03:57:56.114Z,1.40
2017-11-19T04:00:25.268Z,1.40
2017-11-19T04:02:53.636Z,1.40
2017-11-19T04:05:22.036Z,1.40
2017-11-19T04:07:50.427Z,1.50
2017-11-19T04:10:19.090Z,1.50
2017-11-19T04:12:47.463Z,1.60
2017-11-19T04:15:15.827Z,1.60
2017-11-19T04:17:44.224Z,1.70
2017-11-19T04:20:13.768Z,1.80
2017-11-19T04:22:42.960Z,1.80
2017-11-19T04:25:11.337Z,1.80
2017-11-19T04:27:39.707Z,1.80
2017-11-19T04:30:08.104Z,1.80
2017-11-19T04:32:37.257Z,1.80
2017-11-19T04:35:05.675Z,1.80
2017-11-19T04:37:34.905Z,1.90
2017-11-19T04:40:03.264Z,1.80
2017-11-19T04:42:32.428Z,1.90
2017-11-19T04:45:00.821Z,1.90
2017-11-19T04:47:29.327Z,1.90
2017-11-19T04:49:58.465Z,2.00
2017-11-19T04:52:26.832Z,2.00
2017-11-19T04:54:55.223Z,2.10
2017-11-19T04:57:23.600Z,2.10
2017-11-19T04:59:52.275Z,2.10
2017-11-19T05:02:20.656Z,2.10
2017-11-19T05:04:49.025Z,2.10
2017-11-19T05:07:17.425Z,2.20
2017-11-19T05:09:45.792Z,2.20
2017-11-19T05:12:14.309Z,2.20
2017-11-19T05:14:42.683Z,2.20
2017-11-19T05:17:11.059Z,2.30
2017-11-19T05:19:39.456Z,2.20
2017-11-19T05:22:07.841Z,2.30
2017-11-19T05:24:37.025Z,2.30
2017-11-19T05:27:05.394Z,2.30
2017-11-19T05:29:33.769Z,2.30
2017-11-19T05:32:02.166Z,2.30
2017-11-19T05:34:31.313Z,2.30
2017-11-19T05:36:59.719Z,2.30
2017-11-19T05:39:28.095Z,2.30
2017-11-19T05:41:56.469Z,2.30
2017-11-19T05:44:24.868Z,2.30
2017-11-19T05:46:53.240Z,2.30
2017-11-19T05:49:21.991Z,2.30
2017-11-19T05:51:50.365Z,2.30
2017-11-19T05:54:18.748Z,2.30
2017-11-19T05:56:47.141Z,2.30
2017-11-19T05:59:15.504Z,2.30
2017-11-19T06:01:44.092Z,2.30
2017-11-19T06:04:12.505Z,2.30
2017-11-19T06:06:40.879Z,2.30
2017-11-19T06:09:09.280Z,2.30
2017-11-19T06:11:38.421Z,2.30
2017-11-19T06:14:07.108Z,2.20
2017-11-19T06:16:35.478Z,2.30
2017-11-19T06:19:03.836Z,2.30
2017-11-19T06:21:32.229Z,2.30
2017-11-19T06:24:00.589Z,2.20
2017-11-19T06:26:29.847Z,2.20
2017-11-19T06:28:58.234Z,2.20
2017-11-19T06:31:26.601Z,2.20
2017-11-19T06:33:54.996Z,2.20
2017-11-19T06:36:23.359Z,2.20
2017-11-19T06:38:51.858Z,2.20
2017-11-19T06:41:20.231Z,2.20
2017-11-19T06:43:48.593Z,2.30
2017-11-19T06:46:16.984Z,2.30
2017-11-19T06:48:45.354Z,2.30
2017-11-19T06:51:13.875Z,2.30
2017-11-19T06:53:42.999Z,2.30
2017-11-19T06:56:11.362Z,2.30
2017-11-19T06:58:40.176Z,2.30
2017-11-19T07:01:08.532Z,2.40
2017-11-19T07:03:37.331Z,2.40
2017-11-19T07:06:05.687Z,2.40
2017-11-19T07:08:34.864Z,2.40
2017-11-19T07:11:04.209Z,2.40
2017-11-19T07:13:32.809Z,2.40
2017-11-19T07:16:01.585Z,2.50
2017-11-19T07:18:29.942Z,2.50
2017-11-19T07:20:58.307Z,2.50
2017-11-19T07:23:27.467Z,2.60
2017-11-19T07:25:55.851Z,2.60
2017-11-19T07:28:24.498Z,2.60
2017-11-19T07:30:52.879Z,2.60
2017-11-19T07:33:21.263Z,2.60
2017-11-19T07:35:49.693Z,2.60
2017-11-19T07:38:18.821Z,2.60
2017-11-19T07:40:47.616Z,2.60
2017-11-19T07:43:15.982Z,2.70
2017-11-19T07:45:44.360Z,2.70
2017-11-19T07:48:12.749Z,2.80
2017-11-19T07:50:41.127Z,2.80
2017-11-19T07:53:09.744Z,3.00
2017-11-19T07:55:38.127Z,3.10
2017-11-19T07:58:06.515Z,3.00
2017-11-19T08:00:34.920Z,3.00
2017-11-19T08:03:04.102Z,2.90
2017-11-19T08:05:32.618Z,2.90
2017-11-19T08:08:00.985Z,2.80
2017-11-19T08:10:29.363Z,2.80
2017-11-19T08:12:57.881Z,2.80
2017-11-19T08:15:26.244Z,2.80
2017-11-19T08:17:54.683Z,2.80
2017-11-19T08:20:23.839Z,2.80
2017-11-19T08:22:52.209Z,2.80
2017-11-19T08:25:20.595Z,2.80
2017-11-19T08:27:48.963Z,2.80
2017-11-19T08:30:17.573Z,2.80
2017-11-19T08:32:45.944Z,2.80
2017-11-19T08:35:14.303Z,2.70
2017-11-19T08:37:42.703Z,2.70
2017-11-19T08:40:11.183Z,2.60
2017-11-19T08:42:39.679Z,2.60
2017-11-19T08:45:10.052Z,2.60
2017-11-19T08:47:38.433Z,2.60
2017-11-19T08:50:06.832Z,2.60
2017-11-19T08:52:35.198Z,2.60
2017-11-19T08:55:03.786Z,2.50
2017-11-19T08:57:32.148Z,2.50
2017-11-19T09:00:00.511Z,2.50
2017-11-19T09:02:29.666Z,2.50
2017-11-19T09:04:58.060Z,2.50
2017-11-19T09:07:26.496Z,2.40
2017-11-19T09:09:54.866Z,2.40
2017-11-19T09:12:23.223Z,2.40
2017-11-19T09:14:52.388Z,2.30
2017-11-19T09:17:20.748Z,2.30
2017-11-19T09:19:49.237Z,2.20
2017-11-19T09:22:17.610Z,2.20
2017-11-19T09:24:46.118Z,2.20
2017-11-19T09:27:15.275Z,2.20
2017-11-19T09:29:43.646Z,2.20
2017-11-19T09:32:12.709Z,2.20
2017-11-19T09:34:41.124Z,2.30
2017-11-19T09:37:09.518Z,2.30
2017-11-19T09:39:37.949Z,2.30
2017-11-19T09:42:06.315Z,2.30
2017-11-19T09:44:35.510Z,2.30
2017-11-19T09:47:04.791Z,2.30
2017-11-19T09:49:33.295Z,2.40
2017-11-19T09:52:02.451Z,2.40
2017-11-19T09:54:30.819Z,2.40
2017-11-19T09:56:59.375Z,2.50
2017-11-19T09:59:27.739Z,2.60
2017-11-19T10:01:56.100Z,2.60
2017-11-19T10:04:25.629Z,2.80
2017-11-19T10:06:54.005Z,2.80
2017-11-19T10:09:22.425Z,2.80
2017-11-19T10:11:50.804Z,2.90
2017-11-19T10:14:19.186Z,2.90
2017-11-19T10:16:47.576Z,3.00
2017-11-19T10:19:15.990Z,3.00
2017-11-19T10:21:45.434Z,3.00
2017-11-19T10:24:14.581Z,3.00
2017-11-19T10:26:43.721Z,3.10
2017-11-19T10:29:12.106Z,3.10
2017-11-19T10:31:40.524Z,3.10
2017-11-19T10:34:09.096Z,3.10
2017-11-19T10:36:37.475Z,3.20
2017-11-19T10:39:05.862Z,3.40
2017-11-19T10:41:34.356Z,3.60
2017-11-19T10:44:03.555Z,3.60
2017-11-19T10:46:32.844Z,3.40
2017-11-19T10:49:01.316Z,3.40
2017-11-19T10:51:29.698Z,3.40
2017-11-19T10:53:58.260Z,3.40
2017-11-19T10:56:26.700Z,4.00
2017-11-19T10:58:55.075Z,4.40
2017-11-19T11:01:23.485Z,4.50
2017-11-19T11:03:51.966Z,4.40
2017-11-19T11:06:20.755Z,4.20
2017-11-19T11:08:49.288Z,4.10
2017-11-19T11:11:17.663Z,3.90
2017-11-19T11:13:46.818Z,3.70
2017-11-19T11:16:15.268Z,3.70
2017-11-19T11:18:43.866Z,3.60
2017-11-19T11:21:12.299Z,3.60
2017-11-19T11:23:41.443Z,4.20
2017-11-19T11:26:10.004Z,4.20
2017-11-19T11:28:39.073Z,4.50
2017-11-19T11:31:08.352Z,5.40
2017-11-19T11:33:37.482Z,5.00
2017-11-19T11:36:05.874Z,5.00
2017-11-19T11:38:34.371Z,5.20
2017-11-19T11:41:02.790Z,5.00
2017-11-19T11:43:31.560Z,5.00
2017-11-19T11:45:59.933Z,4.70
2017-11-19T11:48:28.363Z,4.70
2017-11-19T11:50:57.619Z,5.50
2017-11-19T11:53:26.016Z,5.50
2017-11-19T11:55:54.875Z,6.20
2017-11-19T11:58:23.273Z,6.40
2017-11-19T12:00:51.728Z,6.90
2017-11-19T12:03:20.196Z,7.70
2017-11-19T12:05:48.579Z,7.70
2017-11-19T12:08:17.012Z,7.70
2017-11-19T12:10:46.151Z,8.10
2017-11-19T12:13:14.522Z,8.00
2017-11-19T12:15:42.914Z,7.70
2017-11-19T12:18:11.283Z,7.40
2017-11-19T12:20:39.983Z,6.90
2017-11-19T12:23:08.363Z,6.50
2017-11-19T12:25:36.746Z,5.80
2017-11-19T12:28:05.226Z,5.40
2017-11-19T12:30:33.609Z,5.10
2017-11-19T12:33:02.168Z,5.00
2017-11-19T12:35:30.554Z,4.80
2017-11-19T12:37:58.948Z,4.90
2017-11-19T12:40:27.435Z,5.30
2017-11-19T12:42:55.821Z,5.70
2017-11-19T12:45:24.370Z,6.10
2017-11-19T12:47:52.764Z,6.70
2017-11-19T12:50:21.438Z,6.70
2017-11-19T12:52:50.050Z,6.40
2017-11-19T12:55:18.515Z,6.20
2017-11-19T12:57:47.092Z,6.30
2017-11-19T13:00:15.538Z,6.90
2017-11-19T13:02:44.199Z,7.10
2017-11-19T13:05:12.677Z,6.90
2017-11-19T13:07:41.064Z,6.80
2017-11-19T13:10:10.628Z,7.00
2017-11-19T13:12:39.210Z,7.00
2017-11-19T13:15:07.839Z,7.00
2017-11-19T13:17:37.036Z,6.70
2017-11-19T13:20:05.489Z,6.70
2017-11-19T13:22:34.868Z,6.50
2017-11-19T13:25:03.242Z,6.50
2017-11-19T13:27:31.699Z,6.20
2017-11-19T13:30:00.110Z,6.00
2017-11-19T13:32:28.472Z,6.00
2017-11-19T13:34:57.063Z,5.90
2017-11-19T13:37:25.711Z,5.50
2017-11-19T13:39:54.835Z,5.40
2017-11-19T13:42:23.219Z,5.40
2017-11-19T13:44:51.583Z,5.40
2017-11-19T13:47:20.452Z,5.30
2017-11-19T13:49:49.600Z,5.40
2017-11-19T13:52:18.738Z,5.20
2017-11-19T13:54:47.888Z,5.00
2017-11-19T13:57:16.303Z,5.00
2017-11-19T13:59:44.864Z,5.20
2017-11-19T14:02:13.235Z,5.30
2017-11-19T14:04:41.990Z,5.40
2017-11-19T14:07:10.405Z,5.30
2017-11-19T14:09:38.895Z,5.20
2017-11-19T14:12:08.232Z,5.20
2017-11-19T14:14:37.488Z,4.90
2017-11-19T14:17:05.912Z,4.90
2017-11-19T14:19:35.374Z,4.70
2017-11-19T14:22:03.753Z,4.70
2017-11-19T14:24:32.189Z,4.60
2017-11-19T14:27:00.888Z,4.60
2017-11-19T14:29:29.268Z,4.50
2017-11-19T14:31:57.736Z,4.40
2017-11-19T14:34:26.100Z,4.40
2017-11-19T14:36:55.276Z,4.20
2017-11-19T14:39:24.066Z,4.20
2017-11-19T14:41:53.468Z,4.20
2017-11-19T14:44:22.289Z,4.20
2017-11-19T14:46:51.058Z,4.20
2017-11-19T14:49:20.327Z,4.20
2017-11-19T14:51:48.863Z,4.20
2017-11-19T14:54:17.451Z,4.20
2017-11-19T14:56:45.981Z,4.20
2017-11-19T14:59:14.826Z,4.20
2017-11-19T15:01:44.551Z,4.20
2017-11-19T15:04:14.605Z,4.20
2017-11-19T15:06:44.464Z,4.10
2017-11-19T15:09:13.294Z,4.10
2017-11-19T15:11:42.258Z,4.10
2017-11-19T15:14:11.176Z,4.10
2017-11-19T15:16:40.948Z,4.10
2017-11-19T15:19:10.506Z,4.10
2017-11-19T15:21:38.948Z,4.00
2017-11-19T15:24:08.404Z,4.00
2017-11-19T15:26:37.040Z,4.00
2017-11-19T15:29:06.011Z,4.00
2017-11-19T15:31:34.724Z,4.00
2017-11-19T15:34:03.198Z,4.00
2017-11-19T15:36:32.097Z,3.90
2017-11-19T15:39:00.740Z,3.90
2017-11-19T15:41:32.023Z,4.00
2017-11-19T15:44:00.788Z,4.00
2017-11-19T15:46:29.266Z,4.00
2017-11-19T15:48:57.746Z,3.90
2017-11-19T15:51:26.380Z,3.90
2017-11-19T15:53:54.983Z,3.90
2017-11-19T15:56:25.299Z,3.90
2017-11-19T15:58:54.477Z,3.80
2017-11-19T16:01:23.313Z,3.90
2017-11-19T16:03:52.032Z,3.80
2017-11-19T16:06:20.911Z,3.80
2017-11-19T16:08:49.392Z,3.70
2017-11-19T16:11:18.070Z,3.70
2017-11-19T16:13:46.562Z,3.70
2017-11-19T16:16:15.015Z,3.70
2017-11-19T16:18:43.516Z,3.70
2017-11-19T16:21:12.552Z,3.60
2017-11-19T16:23:41.206Z,3.60
2017-11-19T16:26:09.888Z,3.60
2017-11-19T16:28:38.974Z,3.60
2017-11-19T16:31:08.486Z,3.60
2017-11-19T16:33:37.121Z,3.60
2017-11-19T16:36:06.409Z,3.60
2017-11-19T16:38:35.135Z,3.60
2017-11-19T16:41:03.832Z,3.60
2017-11-19T16:43:32.518Z,3.50
2017-11-19T16:46:01.074Z,3.50
2017-11-19T16:48:29.455Z,3.50
2017-11-19T16:50:58.682Z,3.50
2017-11-19T16:53:27.076Z,3.50
2017-11-19T16:55:55.639Z,3.50
2017-11-19T16:58:24.584Z,3.50
2017-11-19T17:00:53.840Z,3.50
2017-11-19T17:03:22.552Z,3.50
2017-11-19T17:05:51.962Z,3.50
2017-11-19T17:08:20.605Z,3.40
2017-11-19T17:10:49.022Z,3.50
2017-11-19T17:13:18.373Z,3.40
2017-11-19T17:15:47.314Z,3.40
2017-11-19T17:18:16.291Z,3.50
2017-11-19T17:20:45.194Z,3.50
2017-11-19T17:23:14.853Z,3.50
2017-11-19T17:25:43.658Z,3.40
2017-11-19T17:28:12.720Z,3.40
2017-11-19T17:30:41.828Z,3.40
2017-11-19T17:33:10.765Z,3.40
2017-11-19T17:35:45.230Z,3.40
2017-11-19T17:38:14.226Z,3.40
2017-11-19T17:40:43.909Z,3.40
2017-11-19T17:43:12.709Z,3.40
2017-11-19T17:45:41.659Z,3.40
2017-11-19T17:48:11.113Z,3.40
2017-11-19T17:50:39.920Z,3.50
2017-11-19T17:53:08.960Z,3.50
2017-11-19T17:55:37.715Z,3.50
2017-11-19T17:58:06.590Z,3.50
2017-11-19T18:00:35.611Z,3.50
2017-11-19T18:03:04.242Z,3.50
2017-11-19T18:05:33.084Z,3.50
2017-11-19T18:08:01.938Z,3.50
2017-11-19T18:10:30.552Z,3.50
2017-11-19T18:12:59.696Z,3.50
2017-11-19T18:15:28.460Z,3.50
2017-11-19T18:17:57.975Z,3.50
2017-11-19T18:20:27.251Z,3.50
2017-11-19T18:22:56.894Z,3.50
2017-11-19T18:25:25.996Z,3.50
2017-11-19T18:27:55.586Z,3.50
2017-11-19T18:30:24.384Z,3.50
2017-11-19T18:32:55.025Z,3.50
2017-11-19T18:35:23.825Z,3.50
2017-11-19T18:37:52.912Z,3.50
2017-11-19T18:40:22.192Z,3.50
2017-11-19T18:42:51.469Z,3.40
2017-11-19T18:45:20.321Z,3.40
2017-11-19T18:47:48.887Z,3.40
2017-11-19T18:50:18.364Z,3.40
2017-11-19T18:52:46.866Z,3.40
2017-11-19T18:55:15.230Z,3.40
2017-11-19T18:57:43.727Z,3.40
2017-11-19T19:00:12.599Z,3.40
2017-11-19T19:02:41.807Z,3.40
2017-11-19T19:05:10.329Z,3.40
2017-11-19T19:07:38.944Z,3.30
2017-11-19T19:10:07.510Z,3.30
2017-11-19T19:12:36.042Z,3.30
2017-11-19T19:15:05.242Z,3.30
2017-11-19T19:17:34.494Z,3.30
2017-11-19T19:20:02.992Z,3.30
2017-11-19T19:22:31.390Z,3.30
2017-11-19T19:24:59.944Z,3.30
2017-11-19T19:27:28.711Z,3.30
2017-11-19T19:29:57.091Z,3.30
2017-11-19T19:32:25.452Z,3.30
2017-11-19T19:34:53.844Z,3.30
2017-11-19T19:37:22.236Z,3.30
2017-11-19T19:39:50.657Z,3.30
2017-11-19T19:42:19.783Z,3.30
2017-11-19T19:44:48.307Z,3.30
2017-11-19T19:47:16.770Z,3.30
2017-11-19T19:49:45.300Z,3.30
2017-11-19T19:52:13.965Z,3.30
2017-11-19T19:54:42.543Z,3.30
2017-11-19T19:57:11.941Z,3.20
2017-11-19T19:59:40.568Z,3.20
2017-11-19T20:02:08.959Z,3.20
2017-11-19T20:04:37.618Z,3.20
2017-11-19T20:07:06.826Z,3.30
2017-11-19T20:09:35.204Z,3.30
2017-11-19T20:12:03.610Z,3.30
2017-11-19T20:14:31.985Z,3.30
2017-11-19T20:17:00.785Z,3.30
2017-11-19T20:19:29.227Z,3.30
2017-11-19T20:21:58.499Z,3.30
2017-11-19T20:24:27.707Z,3.40
2017-11-19T20:26:56.084Z,3.40
2017-11-19T20:29:24.910Z,3.40
2017-11-19T20:31:53.317Z,3.40
2017-11-19T20:34:21.703Z,3.30
2017-11-19T20:36:50.688Z,3.30
2017-11-19T20:39:19.208Z,3.30
2017-11-19T20:41:48.427Z,3.30
2017-11-19T20:44:17.560Z,3.30
2017-11-19T20:46:45.966Z,3.30
2017-11-19T20:49:14.713Z,3.20
2017-11-19T20:51:43.126Z,3.30
2017-11-19T20:54:12.126Z,3.30
2017-11-19T20:56:40.771Z,3.20
2017-11-19T20:59:09.312Z,3.20
2017-11-19T21:01:38.494Z,3.20
2017-11-19T21:04:07.247Z,3.20
2017-11-19T21:06:36.103Z,3.20
2017-11-19T21:09:04.941Z,3.20
2017-11-19T21:11:33.359Z,3.30
2017-11-19T21:14:02.625Z,3.20
2017-11-19T21:16:31.055Z,3.20
2017-11-19T21:19:00.375Z,3.30
2017-11-19T21:21:29.020Z,3.30
2017-11-19T21:23:58.215Z,3.30
2017-11-19T21:26:26.973Z,3.30
2017-11-19T21:28:55.498Z,3.30
2017-11-19T21:31:25.545Z,3.30
2017-11-19T21:33:53.967Z,3.30
2017-11-19T21:36:22.341Z,3.30
2017-11-19T21:38:50.792Z,3.30
2017-11-19T21:41:19.286Z,3.30
2017-11-19T21:43:47.889Z,3.40
2017-11-19T21:46:16.596Z,3.30
2017-11-19T21:48:45.787Z,3.30
2017-11-19T21:51:14.227Z,3.30
2017-11-19T21:53:42.954Z,3.30
2017-11-19T21:56:11.609Z,3.30
2017-11-19T21:58:40.969Z,3.30
2017-11-19T22:01:09.427Z,3.30
2017-11-19T22:03:38.715Z,3.30
2017-11-19T22:06:07.860Z,3.30
2017-11-19T22:08:36.286Z,3.30
2017-11-19T22:11:04.932Z,3.30
2017-11-19T22:13:33.300Z,3.30
2017-11-19T22:16:01.687Z,3.30
2017-11-19T22:18:30.050Z,3.30
2017-11-19T22:20:58.747Z,3.30
2017-11-19T22:23:27.224Z,3.30
2017-11-19T22:25:55.617Z,3.30
2017-11-19T22:28:24.197Z,3.20
2017-11-19T22:30:52.592Z,3.20
2017-11-19T22:33:21.258Z,3.20
2017-11-19T22:35:49.652Z,3.20
2017-11-19T22:38:18.045Z,3.20
2017-11-19T22:40:46.463Z,3.20
2017-11-19T22:43:14.842Z,3.20
2017-11-19T22:45:44.122Z,3.10
2017-11-19T22:48:13.253Z,3.20
2017-11-19T22:50:41.631Z,3.20
2017-11-19T22:53:10.014Z,3.10
2017-11-19T22:55:38.374Z,3.10
2017-11-19T22:58:06.984Z,3.10
2017-11-19T23:00:35.433Z,3.20
2017-11-19T23:03:04.554Z,3.20
2017-11-19T23:05:33.026Z,3.20
2017-11-19T23:08:01.392Z,3.20
2017-11-19T23:10:29.914Z,3.20
2017-11-19T23:12:58.290Z,3.20
2017-11-19T23:15:26.656Z,3.20
2017-11-19T23:17:55.038Z,3.20
2017-11-19T23:20:23.402Z,3.20
2017-11-19T23:22:51.765Z,3.10
2017-11-19T23:25:20.912Z,3.20
2017-11-19T23:27:49.350Z,3.20
2017-11-19T23:30:17.767Z,3.20
2017-11-19T23:32:46.130Z,3.30
2017-11-19T23:35:14.520Z,3.20
2017-11-19T23:37:43.001Z,3.20
2017-11-19T23:40:11.366Z,3.10
2017-11-19T23:42:39.883Z,3.10
2017-11-19T23:45:08.297Z,3.10
2017-11-19T23:47:37.461Z,3.20
2017-11-19T23:50:05.913Z,3.10
2017-11-19T23:52:34.275Z,3.20
2017-11-19T23:55:02.759Z,3.20
2017-11-19T23:57:31.116Z,3.20
2017-11-19T23:59:59.480Z,3.20
